Time;durP1;ratioP1;P1;durP2;ratioP2;P2;SDS_P1;SDS_P2;PMS_P1;PMS_P2;Temp;Humidity;BMP_temperature;BMP_pressure;BME280_temperature;BME280_humidity;BME280_pressure;Samples;Min_cycle;Max_cycle;Signal;HPM_P1;HPM_P2
2023/05/06 00:01:00;;;;;;;18.48;13.75;;;10.60;99.90;;;;;;5113384;27;20090;-84
2023/05/06 00:03:26;;;;;;;14.93;11.93;;;10.60;99.90;;;;;;5113137;27;20351;-84
2023/05/06 00:05:52;;;;;;;10.70;8.48;;;10.60;99.90;;;;;;5113339;27;20680;-84
2023/05/06 00:08:17;;;;;;;9.80;8.02;;;10.50;99.90;;;;;;5112303;27;20072;-84
2023/05/06 00:10:43;;;;;;;7.90;7.05;;;10.50;99.90;;;;;;5112879;27;20501;-84
2023/05/06 00:13:09;;;;;;;8.48;7.32;;;10.40;99.90;;;;;;5095652;27;20039;-84
2023/05/06 00:15:35;;;;;;;7.35;6.50;;;10.40;99.90;;;;;;5112265;27;20147;-84
2023/05/06 00:18:01;;;;;;;8.02;7.22;;;10.70;99.90;;;;;;5112247;27;20091;-84
2023/05/06 00:20:27;;;;;;;9.43;7.95;;;10.80;99.90;;;;;;5131104;27;20112;-84
2023/05/06 00:22:53;;;;;;;8.98;7.97;;;10.30;99.90;;;;;;5111949;27;20042;-83
2023/05/06 00:25:19;;;;;;;9.68;7.43;;;10.20;99.90;;;;;;5112522;27;20428;-83
2023/05/06 00:27:45;;;;;;;8.43;7.18;;;10.20;99.90;;;;;;5112061;27;20043;-83
2023/05/06 00:30:11;;;;;;;10.13;8.00;;;10.10;99.90;;;;;;5095437;27;20159;-83
2023/05/06 00:32:36;;;;;;;10.50;8.82;;;10.10;99.90;;;;;;5112514;27;20047;-83
2023/05/06 00:35:02;;;;;;;9.45;8.00;;;10.10;99.90;;;;;;5112256;27;20331;-83
2023/05/06 00:37:28;;;;;;;8.77;7.70;;;10.10;99.90;;;;;;5112175;27;20090;-83
2023/05/06 00:39:54;;;;;;;9.57;7.95;;;10.10;99.90;;;;;;5111615;27;20046;-83
2023/05/06 00:42:22;;;;;;;8.27;7.47;;;10.00;99.90;;;;;;5131376;27;20039;-83
2023/05/06 00:44:49;;;;;;;10.30;8.07;;;10.10;99.90;;;;;;5130311;27;20035;-83
2023/05/06 00:47:15;;;;;;;8.85;8.00;;;9.60;99.90;;;;;;5111949;27;20142;-83
2023/05/06 00:49:41;;;;;;;9.68;7.85;;;10.00;99.90;;;;;;5094889;27;20035;-83
2023/05/06 00:52:07;;;;;;;9.25;7.45;;;10.60;99.90;;;;;;5112372;27;20062;-83
2023/05/06 00:54:33;;;;;;;8.13;6.97;;;10.00;99.90;;;;;;5111637;27;20433;-84
2023/05/06 00:57:00;;;;;;;9.38;7.30;;;10.00;99.90;;;;;;5111836;27;20047;-83
2023/05/06 00:59:26;;;;;;;9.52;7.68;;;10.30;99.90;;;;;;5094624;27;20047;-84
2023/05/06 01:01:52;;;;;;;23.98;10.43;;;10.10;99.90;;;;;;5130258;27;20047;-84
2023/05/06 01:04:19;;;;;;;47.20;26.13;;;10.30;99.90;;;;;;5112637;27;20465;-84
2023/05/06 01:06:53;;;;;;;50.88;29.52;;;10.10;99.90;;;;;;5095089;27;20428;-84
2023/05/06 01:10:04;;;;;;;32.67;21.08;;;10.10;99.90;;;;;;5110999;27;20058;-83
2023/05/06 01:12:36;;;;;;;23.88;16.80;;;10.20;99.90;;;;;;5111532;27;20149;-84
2023/05/06 01:15:13;;;;;;;27.13;18.55;;;10.20;99.90;;;;;;5111662;27;20097;-84
2023/05/06 01:17:43;;;;;;;38.58;25.83;;;10.20;99.90;;;;;;5094539;27;20055;-83
2023/05/06 01:20:10;;;;;;;15.82;11.05;;;10.30;99.90;;;;;;5111418;27;20040;-84
2023/05/06 01:22:37;;;;;;;11.70;8.93;;;10.30;99.90;;;;;;5110961;27;20087;-83
2023/05/06 01:25:03;;;;;;;12.85;10.07;;;10.30;99.90;;;;;;5111416;27;20057;-84
2023/05/06 01:27:29;;;;;;;22.30;16.58;;;10.20;99.90;;;;;;5094119;27;20043;-84
2023/05/06 01:29:55;;;;;;;17.45;15.13;;;10.50;99.90;;;;;;5110474;27;20043;-84
2023/05/06 01:32:54;;;;;;;13.80;10.98;;;10.20;99.90;;;;;;5111126;27;20065;-84
2023/05/06 01:35:57;;;;;;;10.75;9.55;;;10.20;99.90;;;;;;5129923;27;20122;-84
2023/05/06 01:38:37;;;;;;;11.73;9.70;;;10.10;99.90;;;;;;5110545;27;20122;-83
2023/05/06 01:41:04;;;;;;;11.38;9.38;;;10.10;99.90;;;;;;5111392;27;20440;-84
2023/05/06 01:43:37;;;;;;;10.07;8.65;;;10.00;99.90;;;;;;5128972;27;20039;-83
2023/05/06 01:46:02;;;;;;;9.88;8.88;;;10.00;99.90;;;;;;5093857;27;20055;-84
2023/05/06 01:48:31;;;;;;;9.43;8.02;;;10.00;99.90;;;;;;5129480;27;20101;-84
2023/05/06 01:50:57;;;;;;;10.55;8.82;;;10.00;99.90;;;;;;5110806;27;20043;-84
2023/05/06 01:53:22;;;;;;;9.48;8.15;;;10.00;99.90;;;;;;5129084;27;20061;-84
2023/05/06 01:55:48;;;;;;;9.25;7.75;;;9.90;99.90;;;;;;5110757;27;20047;-84
2023/05/06 01:58:14;;;;;;;8.80;7.90;;;9.90;99.90;;;;;;5110875;27;20392;-84
2023/05/06 02:00:40;;;;;;;9.23;8.13;;;9.80;99.90;;;;;;5110788;27;20042;-84
2023/05/06 02:03:06;;;;;;;9.43;8.38;;;9.80;99.90;;;;;;5111034;27;20043;-84
2023/05/06 02:05:31;;;;;;;9.82;8.25;;;9.80;99.90;;;;;;5110312;27;20046;-84
2023/05/06 02:07:57;;;;;;;8.88;7.95;;;9.70;99.90;;;;;;5110176;27;20519;-84
2023/05/06 02:10:22;;;;;;;8.95;8.05;;;9.70;99.90;;;;;;5093737;27;20078;-84
2023/05/06 02:12:48;;;;;;;10.13;8.23;;;9.70;99.90;;;;;;5110613;27;20043;-84
2023/05/06 02:15:14;;;;;;;9.43;8.20;;;9.70;99.90;;;;;;5093379;27;20040;-84
2023/05/06 02:17:40;;;;;;;9.90;8.52;;;9.70;99.90;;;;;;5110597;27;20053;-84
2023/05/06 02:20:08;;;;;;;9.23;7.35;;;10.20;99.90;;;;;;5111112;27;20389;-84
2023/05/06 02:22:34;;;;;;;9.52;8.52;;;9.70;99.90;;;;;;5110012;27;20043;-84
2023/05/06 02:25:00;;;;;;;10.98;8.50;;;9.70;99.90;;;;;;5110029;27;20046;-83
2023/05/06 02:27:26;;;;;;;9.45;8.45;;;9.70;99.90;;;;;;5109987;27;20043;-84
2023/05/06 02:29:51;;;;;;;9.85;8.70;;;9.70;99.90;;;;;;5110461;27;20047;-83
2023/05/06 02:32:17;;;;;;;9.98;8.98;;;9.70;99.90;;;;;;5110952;27;20050;-83
2023/05/06 02:34:42;;;;;;;10.13;8.32;;;9.70;99.90;;;;;;5093530;27;20049;-83
2023/05/06 02:37:08;;;;;;;9.55;8.52;;;9.80;99.90;;;;;;5110335;27;20535;-84
2023/05/06 02:39:33;;;;;;;9.45;7.15;;;9.70;99.90;;;;;;5110281;27;20047;-83
2023/05/06 02:41:59;;;;;;;8.52;7.63;;;10.00;99.90;;;;;;5109849;27;20224;-83
2023/05/06 02:44:25;;;;;;;8.63;7.72;;;9.60;99.90;;;;;;5093083;28;20070;-83
2023/05/06 02:46:51;;;;;;;10.02;8.10;;;9.70;99.90;;;;;;5109620;28;20063;-83
2023/05/06 02:49:16;;;;;;;10.50;8.55;;;9.50;99.90;;;;;;5110106;28;20047;-83
2023/05/06 02:51:42;;;;;;;8.80;7.75;;;9.50;99.90;;;;;;5110787;28;20485;-83
2023/05/06 02:54:07;;;;;;;9.65;8.55;;;10.00;99.90;;;;;;5110096;28;20047;-83
2023/05/06 02:56:34;;;;;;;7.57;6.88;;;9.40;99.90;;;;;;5127960;28;20075;-83
2023/05/06 02:59:00;;;;;;;8.15;7.35;;;9.40;99.90;;;;;;5109833;28;20149;-83
2023/05/06 03:01:26;;;;;;;8.55;7.65;;;9.40;99.90;;;;;;5128825;28;20052;-83
2023/05/06 03:03:51;;;;;;;8.52;6.63;;;9.30;99.90;;;;;;5109494;28;20416;-83
2023/05/06 03:06:17;;;;;;;20.80;7.40;;;9.30;99.90;;;;;;5110683;28;20062;-82
2023/05/06 03:08:45;;;;;;;14.68;8.25;;;9.20;99.90;;;;;;5128354;28;20446;-83
2023/05/06 03:11:11;;;;;;;34.55;8.55;;;9.20;99.90;;;;;;5110775;28;20043;-83
2023/05/06 03:13:37;;;;;;;23.63;7.82;;;9.20;99.90;;;;;;5110266;28;20394;-83
2023/05/06 03:16:02;;;;;;;26.52;7.93;;;9.10;99.90;;;;;;5128830;28;20039;-83
2023/05/06 03:18:28;;;;;;;42.08;8.02;;;9.10;99.90;;;;;;5110497;28;20066;-83
2023/05/06 03:20:53;;;;;;;16.13;6.15;;;9.10;99.90;;;;;;5110533;28;20375;-84
2023/05/06 03:23:19;;;;;;;6.15;5.28;;;9.10;99.90;;;;;;5109231;28;20091;-83
2023/05/06 03:25:45;;;;;;;6.10;5.57;;;9.00;99.90;;;;;;5109809;28;20307;-83
2023/05/06 03:28:11;;;;;;;4.75;4.10;;;9.00;99.90;;;;;;5092816;28;20466;-83
2023/05/06 03:30:36;;;;;;;10.70;4.93;;;8.90;99.90;;;;;;5109851;28;20042;-83
2023/05/06 03:33:02;;;;;;;5.50;5.00;;;8.90;99.90;;;;;;5128277;28;20511;-83
2023/05/06 03:35:28;;;;;;;5.78;5.13;;;8.80;99.90;;;;;;5109352;28;20035;-83
2023/05/06 03:37:54;;;;;;;6.65;5.40;;;8.80;99.90;;;;;;5092285;28;20126;-83
2023/05/06 03:40:19;;;;;;;5.60;5.00;;;8.80;99.90;;;;;;5110328;28;20105;-83
2023/05/06 03:42:45;;;;;;;5.95;5.40;;;8.70;99.90;;;;;;5092858;28;20497;-83
2023/05/06 03:45:11;;;;;;;5.50;5.00;;;8.70;99.90;;;;;;5109812;27;20073;-83
2023/05/06 03:47:37;;;;;;;5.90;5.40;;;8.70;99.90;;;;;;5109005;28;20051;-83
2023/05/06 03:50:03;;;;;;;5.80;5.30;;;8.70;99.90;;;;;;5109832;28;20039;-83
2023/05/06 03:52:29;;;;;;;6.60;5.88;;;8.60;99.90;;;;;;5128099;27;20058;-83
2023/05/06 03:54:54;;;;;;;6.78;6.07;;;8.60;99.90;;;;;;5112762;27;20120;-83
2023/05/06 03:57:20;;;;;;;6.60;5.90;;;8.60;99.90;;;;;;5131325;27;20122;-83
2023/05/06 03:59:45;;;;;;;6.65;5.95;;;8.60;99.90;;;;;;5131691;27;20455;-83
2023/05/06 04:02:11;;;;;;;6.50;5.90;;;8.60;99.90;;;;;;5113578;27;20050;-83
2023/05/06 04:04:37;;;;;;;6.78;5.93;;;8.60;99.90;;;;;;5113550;27;20113;-83
2023/05/06 04:07:02;;;;;;;7.15;6.45;;;8.60;99.90;;;;;;5131837;27;20058;-83
2023/05/06 04:09:28;;;;;;;7.22;6.47;;;8.60;99.90;;;;;;5130784;27;20058;-84
2023/05/06 04:11:54;;;;;;;7.45;6.10;;;8.60;99.90;;;;;;5131523;27;20139;-83
2023/05/06 04:14:22;;;;;;;6.80;6.10;;;8.60;99.90;;;;;;5095391;27;20046;-83
2023/05/06 04:16:48;;;;;;;6.88;5.88;;;8.60;99.90;;;;;;5131113;27;20131;-83
2023/05/06 04:19:16;;;;;;;7.22;6.53;;;8.60;99.90;;;;;;5095902;27;20526;-83
2023/05/06 04:21:42;;;;;;;7.25;6.28;;;8.60;99.90;;;;;;5131143;27;20047;-84
2023/05/06 04:24:08;;;;;;;8.95;7.18;;;8.80;99.90;;;;;;5112885;27;20062;-84
2023/05/06 04:26:33;;;;;;;8.23;6.97;;;8.70;99.90;;;;;;5131117;27;20043;-84
2023/05/06 04:28:59;;;;;;;10.02;7.05;;;8.70;99.90;;;;;;5112607;27;20046;-84
2023/05/06 04:31:27;;;;;;;7.68;6.47;;;9.20;99.90;;;;;;5095307;27;20088;-83
2023/05/06 04:33:52;;;;;;;9.20;7.40;;;8.90;99.90;;;;;;5095700;27;20120;-84
2023/05/06 04:36:18;;;;;;;12.38;7.53;;;9.00;99.90;;;;;;5112642;27;20404;-84
2023/05/06 04:38:44;;;;;;;15.15;8.20;;;9.00;99.90;;;;;;5130482;27;20110;-83
2023/05/06 04:41:10;;;;;;;20.60;8.23;;;9.10;99.90;;;;;;5113002;27;20058;-84
2023/05/06 04:43:36;;;;;;;23.83;9.68;;;9.10;99.90;;;;;;5112585;27;20054;-84
2023/05/06 04:46:02;;;;;;;32.58;10.27;;;9.20;99.90;;;;;;5130131;27;20059;-84
2023/05/06 04:48:27;;;;;;;27.98;10.43;;;9.40;99.90;;;;;;5130918;27;20047;-84
2023/05/06 04:50:53;;;;;;;19.30;10.75;;;9.40;99.90;;;;;;5130646;27;20140;-84
2023/05/06 04:53:18;;;;;;;42.80;12.40;;;9.40;99.90;;;;;;5111523;27;20043;-84
2023/05/06 04:55:44;;;;;;;28.88;11.60;;;9.50;99.90;;;;;;5130471;27;20404;-84
2023/05/06 04:58:10;;;;;;;28.33;11.73;;;9.70;99.90;;;;;;5111701;27;20031;-84
2023/05/06 05:00:35;;;;;;;32.78;12.55;;;9.70;99.90;;;;;;5130721;27;20095;-83
2023/05/06 05:03:01;;;;;;;32.78;11.90;;;9.80;99.90;;;;;;5112054;27;20116;-84
2023/05/06 05:05:27;;;;;;;27.95;12.40;;;9.90;99.90;;;;;;5111876;27;20062;-84
2023/05/06 05:07:53;;;;;;;22.48;11.77;;;10.00;99.90;;;;;;5129354;27;20131;-84
2023/05/06 05:10:19;;;;;;;14.70;11.45;;;10.10;99.90;;;;;;5111759;27;20093;-84
2023/05/06 05:12:45;;;;;;;14.93;12.00;;;10.20;99.90;;;;;;5111434;27;20046;-84
2023/05/06 05:15:11;;;;;;;16.75;11.90;;;10.90;99.90;;;;;;5094360;27;20035;-84
2023/05/06 05:17:37;;;;;;;15.82;11.77;;;10.50;99.90;;;;;;5129928;27;20039;-84
2023/05/06 05:20:04;;;;;;;15.25;12.02;;;10.50;99.90;;;;;;5111635;27;20389;-84
2023/05/06 05:22:30;;;;;;;13.82;11.93;;;10.60;99.90;;;;;;5129385;27;20051;-84
2023/05/06 05:24:56;;;;;;;13.38;11.55;;;10.60;99.90;;;;;;5110841;27;20039;-84
2023/05/06 05:27:22;;;;;;;14.82;11.80;;;11.30;99.90;;;;;;5111313;27;20050;-84
2023/05/06 05:29:48;;;;;;;15.07;11.52;;;10.80;99.90;;;;;;5093766;27;20449;-84
2023/05/06 05:32:13;;;;;;;17.75;12.98;;;10.90;99.90;;;;;;5130310;27;20572;-84
2023/05/06 05:34:39;;;;;;;17.42;12.88;;;11.10;99.90;;;;;;5111391;27;20139;-84
2023/05/06 05:37:05;;;;;;;17.67;13.60;;;11.20;99.90;;;;;;5129248;27;20047;-84
2023/05/06 05:39:30;;;;;;;18.15;14.40;;;11.40;99.90;;;;;;5110787;27;20070;-84
2023/05/06 05:41:56;;;;;;;17.23;14.07;;;11.70;99.90;;;;;;5111231;27;20058;-84
2023/05/06 05:44:22;;;;;;;20.42;15.00;;;11.90;99.90;;;;;;5110599;27;20102;-84
2023/05/06 05:46:48;;;;;;;21.30;14.82;;;12.10;99.90;;;;;;5110983;27;20456;-84
2023/05/06 05:49:14;;;;;;;18.80;15.07;;;12.70;99.90;;;;;;5129380;27;20447;-84
2023/05/06 05:51:39;;;;;;;18.33;14.25;;;12.70;99.90;;;;;;5110489;27;20089;-84
2023/05/06 05:54:05;;;;;;;18.23;14.48;;;12.70;99.90;;;;;;5111404;27;20046;-84
2023/05/06 05:56:30;;;;;;;17.45;14.48;;;12.80;99.90;;;;;;5129870;27;20043;-84
2023/05/06 05:58:56;;;;;;;18.35;14.82;;;12.80;99.90;;;;;;5110638;27;20065;-84
2023/05/06 06:01:21;;;;;;;17.48;14.10;;;13.10;99.90;;;;;;5094503;27;20094;-84
2023/05/06 06:03:47;;;;;;;15.85;13.48;;;13.10;99.90;;;;;;5111715;27;20047;-84
2023/05/06 06:06:13;;;;;;;17.15;13.38;;;13.00;99.90;;;;;;5129467;27;20409;-84
2023/05/06 06:08:39;;;;;;;15.82;12.75;;;13.00;99.90;;;;;;5093639;27;20049;-84
2023/05/06 06:11:05;;;;;;;15.98;13.30;;;13.30;99.90;;;;;;5110447;27;20055;-84
2023/05/06 06:13:31;;;;;;;14.63;11.88;;;13.20;99.90;;;;;;5110403;27;20058;-84
2023/05/06 06:15:57;;;;;;;14.75;12.88;;;13.30;99.90;;;;;;5110348;27;20055;-85
2023/05/06 06:18:23;;;;;;;14.55;12.48;;;13.40;99.90;;;;;;5110215;27;20089;-84
2023/05/06 06:20:48;;;;;;;17.27;13.10;;;13.50;99.90;;;;;;5110632;27;20046;-84
2023/05/06 06:23:14;;;;;;;14.38;12.40;;;13.80;99.90;;;;;;5093410;27;20090;-84
2023/05/06 06:25:40;;;;;;;14.32;12.80;;;13.90;99.90;;;;;;5092835;27;20116;-84
2023/05/06 06:28:06;;;;;;;14.90;11.73;;;14.10;99.90;;;;;;5093650;27;20043;-84
2023/05/06 06:30:32;;;;;;;13.75;12.23;;;14.40;99.90;;;;;;5110655;27;20096;-84
2023/05/06 06:33:00;;;;;;;15.35;12.13;;;14.30;99.90;;;;;;5109862;27;20035;-84
2023/05/06 06:35:26;;;;;;;13.77;12.25;;;14.30;99.90;;;;;;5109863;27;20630;-84
2023/05/06 06:37:51;;;;;;;14.60;11.55;;;14.40;99.90;;;;;;5109982;28;20043;-84
2023/05/06 06:40:17;;;;;;;13.10;11.27;;;14.40;99.90;;;;;;5110432;28;20415;-84
2023/05/06 06:42:43;;;;;;;13.30;11.10;;;14.50;99.90;;;;;;5110270;28;20062;-84
2023/05/06 06:45:09;;;;;;;12.80;11.43;;;14.40;99.90;;;;;;5127972;27;20043;-84
2023/05/06 06:47:34;;;;;;;12.98;11.02;;;14.40;99.90;;;;;;5109891;28;20059;-84
2023/05/06 06:50:00;;;;;;;12.07;10.77;;;14.70;99.90;;;;;;5128772;28;20054;-84
2023/05/06 06:52:26;;;;;;;13.20;10.90;;;14.20;99.90;;;;;;5093291;28;20085;-84
2023/05/06 06:54:51;;;;;;;11.90;10.60;;;14.10;99.90;;;;;;5109410;28;20483;-84
2023/05/06 06:57:17;;;;;;;12.15;10.60;;;14.00;99.90;;;;;;5110057;28;20051;-84
2023/05/06 06:59:43;;;;;;;12.20;10.90;;;14.00;99.90;;;;;;5092887;28;20090;-84
2023/05/06 07:02:09;;;;;;;12.10;10.80;;;13.90;99.90;;;;;;5110620;28;20494;-84
2023/05/06 07:04:34;;;;;;;10.98;9.88;;;13.80;99.90;;;;;;5093661;28;20418;-84
2023/05/06 07:07:00;;;;;;;12.23;10.23;;;13.90;99.90;;;;;;5109449;28;20081;-84
2023/05/06 07:09:25;;;;;;;11.60;10.40;;;13.90;99.90;;;;;;5092377;28;20043;-84
2023/05/06 07:11:51;;;;;;;12.50;10.10;;;13.90;99.90;;;;;;5110073;28;20078;-84
2023/05/06 07:14:17;;;;;;;11.15;9.93;;;13.90;99.90;;;;;;5128074;28;20441;-84
2023/05/06 07:16:42;;;;;;;13.43;9.73;;;14.40;99.90;;;;;;5110244;28;20427;-84
2023/05/06 07:19:08;;;;;;;11.43;10.23;;;14.40;99.90;;;;;;5092609;28;20346;-84
2023/05/06 07:21:33;;;;;;;11.40;9.85;;;14.10;99.90;;;;;;5128114;28;20080;-83
2023/05/06 07:23:59;;;;;;;10.50;9.45;;;14.20;99.90;;;;;;5127789;27;20035;-84
2023/05/06 07:26:25;;;;;;;11.63;10.20;;;14.00;99.90;;;;;;5109900;28;20055;-84
2023/05/06 07:28:51;;;;;;;11.77;10.55;;;14.10;99.90;;;;;;5129992;27;20185;-84
2023/05/06 07:31:19;;;;;;;13.60;10.82;;;14.20;99.90;;;;;;5113653;27;20047;-84
2023/05/06 07:33:46;;;;;;;12.52;10.85;;;14.30;99.90;;;;;;5132094;27;20138;-84
2023/05/06 07:36:12;;;;;;;12.95;10.18;;;14.20;99.90;;;;;;5114103;27;20069;-85
2023/05/06 07:38:37;;;;;;;12.07;10.15;;;14.30;99.90;;;;;;5112390;27;20485;-84
2023/05/06 07:41:03;;;;;;;11.48;10.27;;;14.30;99.90;;;;;;5113899;27;20047;-84
2023/05/06 07:43:28;;;;;;;12.27;10.27;;;14.40;99.90;;;;;;5096961;27;20050;-84
2023/05/06 07:46:01;;;;;;;13.32;9.88;;;14.60;99.90;;;;;;5131598;27;20043;-83
2023/05/06 07:48:29;;;;;;;12.15;9.90;;;14.40;99.90;;;;;;5113391;27;20134;-84
2023/05/06 07:50:55;;;;;;;13.60;10.68;;;14.50;99.90;;;;;;5112852;27;20043;-84
2023/05/06 07:53:21;;;;;;;13.85;11.13;;;14.90;99.90;;;;;;5113252;27;20072;-84
2023/05/06 07:55:46;;;;;;;15.07;11.68;;;15.20;99.90;;;;;;5096573;27;20046;-84
2023/05/06 07:58:12;;;;;;;16.70;12.05;;;15.20;99.90;;;;;;5113289;27;20043;-83
2023/05/06 08:00:38;;;;;;;13.52;11.10;;;15.60;99.90;;;;;;5112566;27;20050;-83
2023/05/06 08:03:03;;;;;;;14.60;11.98;;;15.80;99.90;;;;;;5096406;27;20047;-83
2023/05/06 08:05:29;;;;;;;14.60;11.15;;;16.00;99.90;;;;;;5096477;27;20151;-84
2023/05/06 08:07:54;;;;;;;13.95;11.20;;;16.20;99.90;;;;;;5112292;27;20051;-84
2023/05/06 08:10:21;;;;;;;13.68;10.80;;;16.20;99.90;;;;;;5113353;27;20047;-84
2023/05/06 08:12:46;;;;;;;14.57;11.25;;;16.30;99.90;;;;;;5112847;27;20050;-83
2023/05/06 08:15:12;;;;;;;12.55;10.32;;;16.50;99.90;;;;;;5112959;27;20031;-83
2023/05/06 08:17:38;;;;;;;15.43;10.38;;;16.70;99.90;;;;;;5112164;27;20054;-83
2023/05/06 08:20:06;;;;;;;13.88;10.90;;;16.80;99.90;;;;;;5112879;27;20046;-84
2023/05/06 08:22:32;;;;;;;16.00;11.55;;;16.90;99.90;;;;;;5131173;27;20035;-83
2023/05/06 08:24:58;;;;;;;15.57;11.50;;;17.10;99.90;;;;;;5112829;27;20039;-83
2023/05/06 08:27:24;;;;;;;13.15;10.57;;;17.10;99.90;;;;;;5132151;27;20046;-84
2023/05/06 08:29:50;;;;;;;16.13;11.80;;;17.20;99.90;;;;;;5113032;27;20039;-83
2023/05/06 08:32:15;;;;;;;16.33;11.55;;;17.30;99.90;;;;;;5112273;27;20484;-83
2023/05/06 08:34:41;;;;;;;17.33;12.00;;;17.10;99.90;;;;;;5112262;27;20148;-83
2023/05/06 08:37:06;;;;;;;17.35;12.07;;;17.30;99.90;;;;;;5113022;27;20455;-84
2023/05/06 08:39:32;;;;;;;18.60;13.27;;;17.40;99.90;;;;;;5111077;27;20057;-84
2023/05/06 08:42:00;;;;;;;18.42;12.55;;;17.50;99.90;;;;;;5112588;27;20126;-83
2023/05/06 08:44:26;;;;;;;16.63;12.30;;;17.60;99.90;;;;;;5112294;27;20046;-83
2023/05/06 08:47:00;;;;;;;14.15;11.52;;;17.70;99.90;;;;;;5091445;28;20469;-84
2023/05/06 08:49:26;;;;;;;15.35;10.85;;;17.70;99.90;;;;;;5091412;28;20056;-84
2023/05/06 08:51:51;;;;;;;15.93;11.38;;;17.90;99.90;;;;;;5110425;28;20062;-83
2023/05/06 08:54:17;;;;;;;16.52;12.35;;;17.90;99.90;;;;;;5108405;28;20052;-83
2023/05/06 08:56:55;;;;;;;15.65;10.75;;;18.20;99.90;;;;;;5108625;28;20474;-83
2023/05/06 08:59:24;;;;;;;11.95;8.77;;;18.00;99.90;;;;;;5108060;28;20040;-84
2023/05/06 09:01:50;;;;;;;12.18;9.07;;;18.10;99.90;;;;;;5108669;28;20073;-84
2023/05/06 09:04:17;;;;;;;13.07;10.05;;;18.20;99.90;;;;;;5108808;28;20513;-84
2023/05/06 09:06:42;;;;;;;13.30;10.48;;;18.30;99.90;;;;;;5108626;28;20134;-84
2023/05/06 09:09:08;;;;;;;10.70;8.40;;;18.60;99.90;;;;;;5107978;28;20138;-84
2023/05/06 09:11:37;;;;;;;16.52;10.10;;;18.60;99.90;;;;;;5091367;28;20290;-84
2023/05/06 09:14:13;;;;;;;12.63;9.02;;;18.60;99.90;;;;;;5109871;28;20047;-84
2023/05/06 09:16:50;;;;;;;15.82;10.50;;;18.60;99.90;;;;;;5109490;28;20047;-84
2023/05/06 09:19:17;;;;;;;14.23;10.88;;;18.50;99.90;;;;;;5107885;28;20043;-84
2023/05/06 09:21:47;;;;;;;14.85;11.02;;;18.40;99.90;;;;;;5108462;28;20043;-84
2023/05/06 09:24:14;;;;;;;14.88;11.80;;;18.80;99.90;;;;;;5107793;28;20051;-84
2023/05/06 09:26:41;;;;;;;14.05;11.63;;;18.80;99.90;;;;;;5091310;28;20138;-84
2023/05/06 09:29:07;;;;;;;15.20;11.95;;;18.50;99.90;;;;;;5107611;28;20085;-84
2023/05/06 09:31:42;;;;;;;17.27;12.88;;;18.60;99.90;;;;;;5109491;28;20083;-84
2023/05/06 09:34:09;;;;;;;18.42;14.15;;;18.70;99.90;;;;;;5107680;28;20055;-84
2023/05/06 09:36:38;;;;;;;16.77;13.98;;;19.00;99.90;;;;;;5091260;28;20119;-84
2023/05/06 09:39:04;;;;;;;18.02;12.70;;;18.60;99.90;;;;;;5108883;28;20042;-84
2023/05/06 09:41:32;;;;;;;15.95;11.55;;;19.20;99.90;;;;;;5107235;28;20055;-84
2023/05/06 09:43:58;;;;;;;14.13;10.73;;;19.10;99.90;;;;;;5108072;28;20039;-84
2023/05/06 09:46:26;;;;;;;12.65;10.23;;;19.30;99.90;;;;;;5107722;28;20056;-84
2023/05/06 09:48:54;;;;;;;13.68;9.60;;;19.30;99.90;;;;;;5107233;28;20082;-83
2023/05/06 09:51:20;;;;;;;13.05;9.82;;;19.60;99.90;;;;;;5107576;28;20413;-83
2023/05/06 09:53:46;;;;;;;13.82;10.77;;;19.70;99.90;;;;;;5107275;28;20397;-84
2023/05/06 09:56:56;;;;;;;14.38;10.27;;;20.20;99.90;;;;;;5108904;28;20142;-84
2023/05/06 09:59:23;;;;;;;13.77;10.77;;;20.00;99.90;;;;;;5106465;28;20062;-83
2023/05/06 10:01:53;;;;;;;13.73;10.43;;;20.20;99.90;;;;;;5091226;28;20051;-84
2023/05/06 10:04:32;;;;;;;12.00;9.95;;;20.30;99.90;;;;;;5108101;28;20520;-83
2023/05/06 10:07:11;;;;;;;13.52;10.77;;;20.70;99.90;;;;;;5091021;28;20071;-83
2023/05/06 10:09:38;;;;;;;12.85;9.95;;;20.80;99.90;;;;;;5107107;28;20400;-83
2023/05/06 10:12:09;;;;;;;13.40;10.05;;;20.80;99.90;;;;;;5090528;28;20056;-84
2023/05/06 10:14:35;;;;;;;13.90;11.70;;;20.80;99.90;;;;;;5090634;28;20044;-84
2023/05/06 10:17:05;;;;;;;12.00;10.02;;;20.70;99.90;;;;;;5107514;28;20042;-83
2023/05/06 10:19:32;;;;;;;14.27;10.07;;;20.60;99.90;;;;;;5108971;28;20495;-83
2023/05/06 10:22:09;;;;;;;13.98;11.05;;;20.70;99.90;;;;;;5106906;28;20048;-83
2023/05/06 10:24:45;;;;;;;16.05;11.10;;;20.90;99.90;;;;;;5106512;28;20083;-84
2023/05/06 10:27:12;;;;;;;12.90;10.02;;;21.00;99.90;;;;;;5089939;28;20043;-83
2023/05/06 10:29:38;;;;;;;12.73;10.07;;;20.80;99.90;;;;;;5107951;28;20180;-83
2023/05/06 10:32:06;;;;;;;11.57;8.90;;;20.70;99.90;;;;;;5107042;28;20054;-83
2023/05/06 10:34:40;;;;;;;9.38;7.88;;;20.80;99.90;;;;;;5089902;28;20394;-83
2023/05/06 10:37:07;;;;;;;10.27;7.25;;;20.60;99.90;;;;;;5107376;28;20180;-83
2023/05/06 10:39:33;;;;;;;7.68;6.10;;;20.60;99.90;;;;;;5108066;28;20039;-83
2023/05/06 10:41:58;;;;;;;7.63;5.82;;;20.70;99.90;;;;;;5106859;28;20042;-83
2023/05/06 10:44:57;;;;;;;6.60;5.93;;;20.70;99.90;;;;;;5106848;28;20408;-83
2023/05/06 10:47:26;;;;;;;8.07;6.15;;;20.60;99.90;;;;;;5101058;28;20415;-83
2023/05/06 10:50:22;;;;;;;7.57;6.38;;;20.50;99.90;;;;;;5106447;28;20059;-83
2023/05/06 10:52:54;;;;;;;8.05;6.30;;;20.70;99.90;;;;;;5108016;28;20066;-83
2023/05/06 10:55:32;;;;;;;7.93;6.53;;;20.80;99.90;;;;;;5108351;28;20401;-83
2023/05/06 10:58:04;;;;;;;6.65;6.05;;;20.90;99.90;;;;;;5106945;28;20043;-84
2023/05/06 11:00:31;;;;;;;8.77;7.07;;;20.70;99.90;;;;;;5108110;28;20501;-83
2023/05/06 11:03:00;;;;;;;8.52;6.97;;;20.70;99.90;;;;;;5109190;28;20043;-83
2023/05/06 11:05:26;;;;;;;8.90;7.15;;;20.50;99.90;;;;;;5093858;28;20040;-84
2023/05/06 11:07:52;;;;;;;7.88;7.07;;;20.30;99.90;;;;;;5112246;28;20040;-83
2023/05/06 11:10:38;;;;;;;9.65;8.00;;;20.10;99.90;;;;;;5111276;28;20070;-84
2023/05/06 11:13:27;;;;;;;8.40;7.60;;;20.00;99.90;;;;;;5113581;28;20058;-83
2023/05/06 11:15:54;;;;;;;8.80;7.90;;;20.20;99.90;;;;;;5093560;28;20052;-83
2023/05/06 11:18:41;;;;;;;9.32;8.02;;;19.80;99.90;;;;;;5110383;28;20040;-83
2023/05/06 11:21:06;;;;;;;9.18;8.23;;;19.90;99.90;;;;;;5112622;28;20047;-84
2023/05/06 11:23:41;;;;;;;9.05;7.78;;;19.90;99.90;;;;;;5111363;28;20375;-84
2023/05/06 11:26:11;;;;;;;8.88;7.97;;;19.90;99.90;;;;;;5111008;28;20043;-84
2023/05/06 11:28:37;;;;;;;9.50;7.35;;;19.90;99.90;;;;;;5110664;28;20515;-83
2023/05/06 11:31:03;;;;;;;8.25;7.40;;;19.90;99.90;;;;;;5093243;28;20067;-84
2023/05/06 11:33:34;;;;;;;8.30;7.50;;;19.90;99.90;;;;;;5093172;28;20047;-84
2023/05/06 11:36:01;;;;;;;10.20;8.63;;;19.80;99.90;;;;;;5112306;28;20088;-84
2023/05/06 11:38:46;;;;;;;11.77;8.07;;;19.70;99.90;;;;;;5110273;28;20087;-83
2023/05/06 11:41:13;;;;;;;9.60;8.10;;;19.60;99.90;;;;;;5111153;27;20044;-84
2023/05/06 11:43:40;;;;;;;9.55;8.55;;;19.50;99.90;;;;;;5109707;28;20054;-83
2023/05/06 11:46:06;;;;;;;9.77;8.77;;;19.40;99.90;;;;;;5118981;27;20062;-84
2023/05/06 11:48:31;;;;;;;13.88;9.40;;;19.30;99.90;;;;;;5112901;27;20043;-84
2023/05/06 11:50:57;;;;;;;10.90;9.10;;;19.40;99.90;;;;;;5113586;27;20035;-84
2023/05/06 11:53:23;;;;;;;10.85;8.82;;;19.30;99.90;;;;;;5131609;27;20039;-84
2023/05/06 11:55:51;;;;;;;10.82;8.55;;;19.30;99.90;;;;;;5112746;27;20050;-84
2023/05/06 11:58:19;;;;;;;11.85;10.70;;;19.60;99.90;;;;;;5113294;27;20497;-84
2023/05/06 12:00:52;;;;;;;10.18;8.38;;;19.70;99.90;;;;;;5113123;27;20043;-83
2023/05/06 12:03:19;;;;;;;11.65;8.32;;;19.70;99.90;;;;;;5131474;27;20039;-83
2023/05/06 12:05:46;;;;;;;9.65;7.95;;;19.80;99.90;;;;;;5112752;27;20814;-84
2023/05/06 12:08:12;;;;;;;10.35;8.82;;;19.80;99.90;;;;;;5112768;27;20074;-84
2023/05/06 12:10:39;;;;;;;11.30;10.20;;;20.20;99.90;;;;;;5095926;27;20043;-84
2023/05/06 12:13:05;;;;;;;10.70;8.95;;;20.20;99.90;;;;;;5112867;27;20046;-84
2023/05/06 12:15:33;;;;;;;10.25;8.93;;;20.60;99.90;;;;;;5111821;27;20560;-84
2023/05/06 12:17:59;;;;;;;10.80;9.25;;;20.40;99.90;;;;;;5112776;27;20554;-84
2023/05/06 12:20:25;;;;;;;9.52;7.68;;;20.30;99.90;;;;;;5095761;27;20047;-84
2023/05/06 12:23:10;;;;;;;9.85;8.20;;;20.30;99.90;;;;;;5130423;27;20111;-84
2023/05/06 12:25:36;;;;;;;10.43;7.80;;;20.60;99.90;;;;;;5095464;27;20147;-84
2023/05/06 12:28:22;;;;;;;10.25;8.07;;;20.50;99.90;;;;;;5112708;27;20035;-83
2023/05/06 12:30:48;;;;;;;8.57;7.68;;;20.50;99.90;;;;;;5112273;27;20139;-84
2023/05/06 12:33:13;;;;;;;12.82;8.98;;;20.60;99.90;;;;;;5112527;27;20047;-83
2023/05/06 12:35:40;;;;;;;10.55;7.05;;;20.70;99.90;;;;;;5130929;27;20477;-83
2023/05/06 12:38:14;;;;;;;11.05;9.95;;;20.70;99.90;;;;;;5112112;27;20138;-83
2023/05/06 12:40:51;;;;;;;11.52;7.93;;;20.80;99.90;;;;;;5112736;27;20157;-83